createdAt,value
2017-08-14T00:00:26.308Z,1010.67
2017-08-14T00:01:26.329Z,1010.69
2017-08-14T00:02:26.353Z,1010.66
2017-08-14T00:03:26.375Z,1010.68
2017-08-14T00:04:26.397Z,1010.65
2017-08-14T00:05:26.418Z,1010.66
2017-08-14T00:06:26.441Z,1010.67
2017-08-14T00:07:26.465Z,1010.66
2017-08-14T00:08:26.487Z,1010.66
2017-08-14T00:09:26.509Z,1010.62
2017-08-14T00:10:26.531Z,1010.64
2017-08-14T00:11:26.554Z,1010.64
2017-08-14T00:12:26.575Z,1010.65
2017-08-14T00:13:26.598Z,1010.61
2017-08-14T00:14:26.619Z,1010.6
2017-08-14T00:15:26.640Z,1010.63
2017-08-14T00:16:26.664Z,1010.58
2017-08-14T00:17:26.686Z,1010.58
2017-08-14T00:18:26.709Z,1010.6
2017-08-14T00:19:26.730Z,1010.59
2017-08-14T00:20:26.752Z,1010.62
2017-08-14T00:21:26.781Z,1010.63
2017-08-14T00:22:26.797Z,1010.59
2017-08-14T00:23:26.819Z,1010.62
2017-08-14T00:24:26.841Z,1010.6
2017-08-14T00:25:26.864Z,1010.57
2017-08-14T00:26:26.885Z,1010.61
2017-08-14T00:27:26.908Z,1010.59
2017-08-14T00:28:26.930Z,1010.61
2017-08-14T00:29:26.953Z,1010.6
2017-08-14T00:30:26.974Z,1010.57
2017-08-14T00:31:26.996Z,1010.59
2017-08-14T00:32:27.018Z,1010.58
2017-08-14T00:33:27.041Z,1010.55
2017-08-14T00:34:27.062Z,1010.58
2017-08-14T00:35:27.085Z,1010.54
2017-08-14T00:36:27.106Z,1010.54
2017-08-14T00:37:27.129Z,1010.55
2017-08-14T00:38:27.151Z,1010.58
2017-08-14T00:39:27.179Z,1010.61
2017-08-14T00:40:27.202Z,1010.62
2017-08-14T00:41:27.215Z,1010.62
2017-08-14T00:42:27.238Z,1010.62
2017-08-14T00:43:27.261Z,1010.61
2017-08-14T00:44:27.282Z,1010.62
2017-08-14T00:45:27.305Z,1010.63
2017-08-14T00:46:27.325Z,1010.64
2017-08-14T00:47:27.349Z,1010.64
2017-08-14T00:48:27.371Z,1010.65
2017-08-14T00:49:27.391Z,1010.65
2017-08-14T00:50:27.414Z,1010.69
2017-08-14T00:51:27.438Z,1010.67
2017-08-14T00:52:27.460Z,1010.69
2017-08-14T00:53:27.479Z,1010.7
2017-08-14T00:54:27.502Z,1010.65
2017-08-14T00:55:27.524Z,1010.7
2017-08-14T00:56:27.546Z,1010.68
2017-08-14T00:57:27.568Z,1010.69
2017-08-14T00:58:27.589Z,1010.65
2017-08-14T00:59:27.630Z,1010.67
2017-08-14T01:00:27.632Z,1010.65
2017-08-14T01:01:27.656Z,1010.65
2017-08-14T01:02:27.677Z,1010.65
2017-08-14T01:03:27.700Z,1010.68
2017-08-14T01:04:27.721Z,1010.68
2017-08-14T01:05:27.744Z,1010.71
2017-08-14T01:06:27.764Z,1010.74
2017-08-14T01:07:27.786Z,1010.71
2017-08-14T01:08:27.809Z,1010.74
2017-08-14T01:09:27.829Z,1010.76
2017-08-14T01:10:27.851Z,1010.74
2017-08-14T01:11:27.874Z,1010.75
2017-08-14T01:12:27.895Z,1010.69
2017-08-14T01:13:27.915Z,1010.74
2017-08-14T01:14:27.938Z,1010.74
2017-08-14T01:15:27.960Z,1010.73
2017-08-14T01:16:27.982Z,1010.74
2017-08-14T01:17:28.004Z,1010.73
2017-08-14T01:18:28.025Z,1010.72
2017-08-14T01:19:28.047Z,1010.74
2017-08-14T01:20:28.069Z,1010.72
2017-08-14T01:21:28.090Z,1010.77
2017-08-14T01:22:28.110Z,1010.75
2017-08-14T01:23:28.132Z,1010.79
2017-08-14T01:24:28.155Z,1010.77
2017-08-14T01:25:28.175Z,1010.83
2017-08-14T01:26:28.198Z,1010.79
2017-08-14T01:27:28.219Z,1010.83
2017-08-14T01:28:28.242Z,1010.8
2017-08-14T01:29:28.263Z,1010.82
2017-08-14T01:30:28.300Z,1010.86
2017-08-14T01:31:28.306Z,1010.83
2017-08-14T01:32:28.529Z,1010.85
2017-08-14T01:33:28.349Z,1010.81
2017-08-14T01:34:28.371Z,1010.85
2017-08-14T01:35:28.392Z,1010.83
2017-08-14T01:36:28.416Z,1010.84
2017-08-14T01:37:28.435Z,1010.83
2017-08-14T01:38:28.458Z,1010.84
2017-08-14T01:39:28.479Z,1010.82
2017-08-14T01:40:28.500Z,1010.83
2017-08-14T01:41:28.522Z,1010.79
2017-08-14T01:42:28.543Z,1010.8
2017-08-14T01:43:28.564Z,1010.78
2017-08-14T01:44:28.588Z,1010.8
2017-08-14T01:45:28.608Z,1010.83
2017-08-14T01:46:28.630Z,1010.85
2017-08-14T01:47:28.650Z,1010.84
2017-08-14T01:48:28.672Z,1010.83
2017-08-14T01:49:28.694Z,1010.85
2017-08-14T01:50:28.715Z,1010.86
2017-08-14T01:51:28.736Z,1010.85
2017-08-14T01:52:28.758Z,1010.82
2017-08-14T01:53:28.778Z,1010.83
2017-08-14T01:54:28.800Z,1010.81
2017-08-14T01:55:28.822Z,1010.84
2017-08-14T01:56:28.845Z,1010.81
2017-08-14T01:57:28.864Z,1010.84
2017-08-14T01:58:28.886Z,1010.78
2017-08-14T01:59:28.907Z,1010.73
2017-08-14T02:00:28.928Z,1010.78
2017-08-14T02:01:28.951Z,1010.83
2017-08-14T02:02:28.970Z,1010.77
2017-08-14T02:03:28.992Z,1010.79
2017-08-14T02:04:29.015Z,1010.83
2017-08-14T02:05:29.040Z,1010.8
2017-08-14T02:06:29.057Z,1010.81
2017-08-14T02:07:29.078Z,1010.83
2017-08-14T02:08:29.100Z,1010.78
2017-08-14T02:09:29.120Z,1010.84
2017-08-14T02:10:29.142Z,1010.79
2017-08-14T02:11:29.163Z,1010.78
2017-08-14T02:12:29.184Z,1010.79
2017-08-14T02:13:29.205Z,1010.75
2017-08-14T02:14:29.231Z,1010.74
2017-08-14T02:15:29.247Z,1010.76
2017-08-14T02:16:29.270Z,1010.76
2017-08-14T02:17:29.290Z,1010.74
2017-08-14T02:18:29.311Z,1010.72
2017-08-14T02:19:29.337Z,1010.72
2017-08-14T02:20:29.353Z,1010.75
2017-08-14T02:21:29.375Z,1010.77
2017-08-14T02:22:29.399Z,1010.78
2017-08-14T02:23:29.417Z,1010.8
2017-08-14T02:24:29.439Z,1010.81
2017-08-14T02:25:29.459Z,1010.85
2017-08-14T02:26:29.481Z,1010.78
2017-08-14T02:27:29.502Z,1010.81
2017-08-14T02:28:29.522Z,1010.81
2017-08-14T02:29:29.545Z,1010.81
2017-08-14T02:30:29.581Z,1010.76
2017-08-14T02:31:29.586Z,1010.79
2017-08-14T02:32:29.608Z,1010.79
2017-08-14T02:33:29.630Z,1010.79
2017-08-14T02:34:29.649Z,1010.77
2017-08-14T02:35:29.670Z,1010.75
2017-08-14T02:36:29.692Z,1010.77
2017-08-14T02:37:29.719Z,1010.76
2017-08-14T02:38:29.734Z,1010.78
2017-08-14T02:39:29.756Z,1010.75
2017-08-14T02:40:29.778Z,1010.76
2017-08-14T02:41:29.799Z,1010.76
2017-08-14T02:42:29.821Z,1010.75
2017-08-14T02:43:29.840Z,1010.77
2017-08-14T02:44:29.861Z,1010.72
2017-08-14T02:45:29.883Z,1010.7
2017-08-14T02:46:29.903Z,1010.69
2017-08-14T02:47:29.925Z,1010.69
2017-08-14T02:48:29.944Z,1010.74
2017-08-14T02:49:29.968Z,1010.73
2017-08-14T02:50:29.987Z,1010.72
2017-08-14T02:51:30.009Z,1010.74
2017-08-14T02:52:30.030Z,1010.76
2017-08-14T02:53:30.051Z,1010.78
2017-08-14T02:54:30.072Z,1010.72
2017-08-14T02:55:30.092Z,1010.77
2017-08-14T02:56:30.113Z,1010.76
2017-08-14T02:57:30.133Z,1010.74
2017-08-14T02:58:30.156Z,1010.76
2017-08-14T02:59:30.176Z,1010.77
2017-08-14T03:00:30.196Z,1010.77
2017-08-14T03:01:30.218Z,1010.75
2017-08-14T03:02:30.239Z,1010.77
2017-08-14T03:03:30.260Z,1010.73
2017-08-14T03:04:30.281Z,1010.79
2017-08-14T03:05:30.301Z,1010.77
2017-08-14T03:06:30.322Z,1010.78
2017-08-14T03:07:30.344Z,1010.76
2017-08-14T03:08:30.365Z,1010.76
2017-08-14T03:09:30.387Z,1010.74
2017-08-14T03:10:30.405Z,1010.75
2017-08-14T03:11:30.425Z,1010.77
2017-08-14T03:12:30.447Z,1010.77
2017-08-14T03:13:30.467Z,1010.76
2017-08-14T03:14:30.489Z,1010.79
2017-08-14T03:15:30.509Z,1010.81
2017-08-14T03:16:30.529Z,1010.81
2017-08-14T03:17:30.551Z,1010.79
2017-08-14T03:18:30.572Z,1010.77
2017-08-14T03:19:30.593Z,1010.82
2017-08-14T03:20:30.614Z,1010.79
2017-08-14T03:21:30.634Z,1010.78
2017-08-14T03:22:30.653Z,1010.82
2017-08-14T03:23:30.675Z,1010.83
2017-08-14T03:24:30.697Z,1010.78
2017-08-14T03:25:30.717Z,1010.85
2017-08-14T03:26:30.736Z,1010.81
2017-08-14T03:27:30.758Z,1010.81
2017-08-14T03:28:30.780Z,1010.79
2017-08-14T03:29:30.800Z,1010.82
2017-08-14T03:30:30.827Z,1010.85
2017-08-14T03:31:30.841Z,1010.81
2017-08-14T03:32:30.862Z,1010.82
2017-08-14T03:33:30.899Z,1010.82
2017-08-14T03:34:30.903Z,1010.8
2017-08-14T03:35:30.926Z,1010.77
2017-08-14T03:36:30.945Z,1010.75
2017-08-14T03:37:30.965Z,1010.8
2017-08-14T03:38:30.987Z,1010.79
2017-08-14T03:39:31.117Z,1010.78
2017-08-14T03:40:31.028Z,1010.81
2017-08-14T03:41:31.050Z,1010.86
2017-08-14T03:42:31.070Z,1010.87
2017-08-14T03:43:31.090Z,1010.85
2017-08-14T03:44:31.109Z,1010.85
2017-08-14T03:45:31.131Z,1010.85
2017-08-14T03:46:31.150Z,1010.86
2017-08-14T03:47:31.172Z,1010.83
2017-08-14T03:48:31.192Z,1010.86
2017-08-14T03:49:31.215Z,1010.84
2017-08-14T03:50:31.235Z,1010.82
2017-08-14T03:51:31.254Z,1010.84
2017-08-14T03:52:31.274Z,1010.85
2017-08-14T03:53:31.295Z,1010.85
2017-08-14T03:54:31.316Z,1010.85
2017-08-14T03:55:31.336Z,1010.82
2017-08-14T03:56:31.357Z,1010.87
2017-08-14T03:57:31.377Z,1010.84
2017-08-14T03:58:31.402Z,1010.91
2017-08-14T03:59:31.417Z,1010.88
2017-08-14T04:00:31.438Z,1010.88
2017-08-14T04:01:31.459Z,1010.87
2017-08-14T04:02:31.481Z,1010.88
2017-08-14T04:03:31.500Z,1010.91
2017-08-14T04:04:31.521Z,1010.91
2017-08-14T04:05:31.542Z,1010.92
2017-08-14T04:06:31.561Z,1010.92
2017-08-14T04:07:31.581Z,1010.92
2017-08-14T04:08:31.604Z,1010.94
2017-08-14T04:09:31.624Z,1010.98
2017-08-14T04:10:31.644Z,1011.02
2017-08-14T04:11:31.664Z,1010.99
2017-08-14T04:12:31.687Z,1011.04
2017-08-14T04:13:31.707Z,1011.03
2017-08-14T04:14:31.727Z,1011.02
2017-08-14T04:15:31.746Z,1011.05
2017-08-14T04:16:31.767Z,1011.08
2017-08-14T04:17:31.787Z,1011.09
2017-08-14T04:18:31.809Z,1011.08
2017-08-14T04:19:31.828Z,1011.09
2017-08-14T04:20:31.849Z,1011.06
2017-08-14T04:21:31.873Z,1011.07
2017-08-14T04:22:31.917Z,1011.08
2017-08-14T04:23:31.911Z,1011.11
2017-08-14T04:24:31.931Z,1011.09
2017-08-14T04:25:31.952Z,1011.12
2017-08-14T04:26:31.971Z,1011.11
2017-08-14T04:27:31.992Z,1011.12
2017-08-14T04:28:32.013Z,1011.12
2017-08-14T04:29:32.034Z,1011.09
2017-08-14T04:30:32.053Z,1011.1
2017-08-14T04:31:32.074Z,1011.1
2017-08-14T04:32:32.093Z,1011.11
2017-08-14T04:33:32.114Z,1011.12
2017-08-14T04:34:32.134Z,1011.09
2017-08-14T04:35:32.154Z,1011.06
2017-08-14T04:36:32.175Z,1011.07
2017-08-14T04:37:32.197Z,1011.11
2017-08-14T04:38:32.216Z,1011.1
2017-08-14T04:39:32.237Z,1011.1
2017-08-14T04:40:32.256Z,1011.08
2017-08-14T04:41:32.277Z,1011.08
2017-08-14T04:42:32.298Z,1011.12
2017-08-14T04:43:32.317Z,1011.1
2017-08-14T04:44:32.338Z,1011.12
2017-08-14T04:45:32.358Z,1011.1
2017-08-14T04:46:32.378Z,1011.1
2017-08-14T04:47:32.399Z,1011.13
2017-08-14T04:48:32.419Z,1011.08
2017-08-14T04:49:32.440Z,1011.12
2017-08-14T04:50:32.460Z,1011.1
2017-08-14T04:51:32.484Z,1011.11
2017-08-14T04:52:32.500Z,1011.13
2017-08-14T04:53:32.521Z,1011.11
2017-08-14T04:54:32.541Z,1011.1
2017-08-14T04:55:32.561Z,1011.11
2017-08-14T04:56:32.582Z,1011.13
2017-08-14T04:57:32.601Z,1011.19
2017-08-14T04:58:32.621Z,1011.2
2017-08-14T04:59:32.642Z,1011.22
2017-08-14T05:00:32.663Z,1011.2
2017-08-14T05:01:32.682Z,1011.2
2017-08-14T05:02:32.702Z,1011.19
2017-08-14T05:03:32.723Z,1011.19
2017-08-14T05:04:32.743Z,1011.2
2017-08-14T05:05:32.767Z,1011.18
2017-08-14T05:06:32.783Z,1011.2
2017-08-14T05:07:32.804Z,1011.21
2017-08-14T05:08:32.824Z,1011.23
2017-08-14T05:09:32.844Z,1011.25
2017-08-14T05:10:32.865Z,1011.22
2017-08-14T05:11:32.888Z,1011.22
2017-08-14T05:12:32.904Z,1011.2
2017-08-14T05:13:32.927Z,1011.22
2017-08-14T05:14:32.946Z,1011.25
2017-08-14T05:15:32.969Z,1011.25
2017-08-14T05:16:32.985Z,1011.27
2017-08-14T05:17:33.024Z,1011.25
2017-08-14T05:18:33.029Z,1011.28
2017-08-14T05:19:33.046Z,1011.28
2017-08-14T05:20:33.066Z,1011.29
2017-08-14T05:21:33.088Z,1011.34
2017-08-14T05:22:33.109Z,1011.29
2017-08-14T05:23:33.216Z,1011.28
2017-08-14T05:24:33.148Z,1011.38
2017-08-14T05:25:33.168Z,1011.35
2017-08-14T05:26:33.193Z,1011.31
2017-08-14T05:27:33.211Z,1011.35
2017-08-14T05:28:33.229Z,1011.36
2017-08-14T05:29:33.249Z,1011.36
2017-08-14T05:30:33.269Z,1011.34
2017-08-14T05:31:33.288Z,1011.36
2017-08-14T05:32:33.310Z,1011.36
2017-08-14T05:33:33.329Z,1011.38
2017-08-14T05:34:33.350Z,1011.35
2017-08-14T05:35:33.422Z,1011.39
2017-08-14T05:36:33.605Z,1011.38
2017-08-14T05:37:33.461Z,1011.38
2017-08-14T05:38:33.468Z,1011.36
2017-08-14T05:39:33.482Z,1011.33
2017-08-14T05:40:33.471Z,1011.33
2017-08-14T05:41:33.491Z,1011.36
2017-08-14T05:42:33.511Z,1011.36
2017-08-14T05:43:33.531Z,1011.33
2017-08-14T05:44:33.552Z,1011.31
2017-08-14T05:45:33.571Z,1011.36
2017-08-14T05:46:33.594Z,1011.36
2017-08-14T05:47:33.612Z,1011.36
2017-08-14T05:48:33.633Z,1011.36
2017-08-14T05:49:33.651Z,1011.4
2017-08-14T05:50:33.672Z,1011.34
2017-08-14T05:51:33.694Z,1011.34
2017-08-14T05:52:33.712Z,1011.35
2017-08-14T05:53:33.734Z,1011.36
2017-08-14T05:54:33.758Z,1011.34
2017-08-14T05:55:33.774Z,1011.33
2017-08-14T05:56:33.792Z,1011.33
2017-08-14T05:57:33.898Z,1011.34
2017-08-14T05:58:33.835Z,1011.33
2017-08-14T05:59:33.890Z,1011.27
2017-08-14T06:00:33.934Z,1011.31
2017-08-14T06:01:33.895Z,1011.31
2017-08-14T06:02:33.915Z,1011.35
2017-08-14T06:03:33.935Z,1011.33
2017-08-14T06:04:33.956Z,1011.32
2017-08-14T06:05:33.976Z,1011.32
2017-08-14T06:06:33.996Z,1011.31
2017-08-14T06:07:34.016Z,1011.36
2017-08-14T06:08:34.168Z,1011.33
2017-08-14T06:09:34.057Z,1011.33
2017-08-14T06:10:34.076Z,1011.36
2017-08-14T06:11:34.097Z,1011.35
2017-08-14T06:12:34.116Z,1011.38
2017-08-14T06:13:34.138Z,1011.39
2017-08-14T06:14:34.210Z,1011.36
2017-08-14T06:15:34.176Z,1011.42
2017-08-14T06:16:34.198Z,1011.4
2017-08-14T06:17:34.219Z,1011.39
2017-08-14T06:18:34.239Z,1011.41
2017-08-14T06:19:34.259Z,1011.42
2017-08-14T06:20:34.278Z,1011.4
2017-08-14T06:21:34.300Z,1011.44
2017-08-14T06:22:34.319Z,1011.43
2017-08-14T06:23:34.340Z,1011.42
2017-08-14T06:24:34.361Z,1011.46
2017-08-14T06:25:34.381Z,1011.4
2017-08-14T06:26:34.401Z,1011.41
2017-08-14T06:27:34.420Z,1011.4
2017-08-14T06:28:34.441Z,1011.38
2017-08-14T06:29:34.461Z,1011.39
2017-08-14T06:30:34.481Z,1011.39
2017-08-14T06:31:34.501Z,1011.41
2017-08-14T06:32:34.520Z,1011.37
2017-08-14T06:33:34.542Z,1011.41
2017-08-14T06:34:34.566Z,1011.43
2017-08-14T06:35:34.582Z,1011.41
2017-08-14T06:36:34.603Z,1011.42
2017-08-14T06:37:34.624Z,1011.43
2017-08-14T06:38:34.646Z,1011.42
2017-08-14T06:39:34.664Z,1011.42
2017-08-14T06:40:34.684Z,1011.46
2017-08-14T06:41:34.705Z,1011.45
2017-08-14T06:42:34.724Z,1011.45
2017-08-14T06:43:34.746Z,1011.51
2017-08-14T06:44:34.767Z,1011.46
2017-08-14T06:45:34.787Z,1011.44
2017-08-14T06:46:34.808Z,1011.45
2017-08-14T06:47:34.827Z,1011.46
2017-08-14T06:48:34.848Z,1011.47
2017-08-14T06:49:34.867Z,1011.5
2017-08-14T06:50:34.888Z,1011.46
2017-08-14T06:51:34.909Z,1011.48
2017-08-14T06:52:34.929Z,1011.49
2017-08-14T06:53:34.950Z,1011.51
2017-08-14T06:54:34.974Z,1011.51
2017-08-14T06:55:34.990Z,1011.54
2017-08-14T06:56:35.011Z,1011.54
2017-08-14T06:57:35.032Z,1011.53
2017-08-14T06:58:35.052Z,1011.5
2017-08-14T06:59:35.072Z,1011.5
2017-08-14T07:00:35.095Z,1011.46
2017-08-14T07:01:35.114Z,1011.47
2017-08-14T07:02:35.157Z,1011.53
2017-08-14T07:03:35.153Z,1011.5
2017-08-14T07:04:35.177Z,1011.51
2017-08-14T07:05:35.197Z,1011.5
2017-08-14T07:06:35.217Z,1011.52
2017-08-14T07:07:35.238Z,1011.54
2017-08-14T07:08:35.261Z,1011.53
2017-08-14T07:09:35.279Z,1011.56
2017-08-14T07:10:35.300Z,1011.56
2017-08-14T07:11:35.320Z,1011.56
2017-08-14T07:12:35.342Z,1011.55
2017-08-14T07:13:35.362Z,1011.57
2017-08-14T07:14:35.632Z,1011.56
2017-08-14T07:15:35.404Z,1011.53
2017-08-14T07:16:35.463Z,1011.55
2017-08-14T07:17:35.445Z,1011.55
2017-08-14T07:18:35.466Z,1011.55
2017-08-14T07:19:35.487Z,1011.56
2017-08-14T07:20:35.507Z,1011.53
2017-08-14T07:21:35.528Z,1011.56
2017-08-14T07:22:35.550Z,1011.56
2017-08-14T07:23:35.570Z,1011.54
2017-08-14T07:24:35.592Z,1011.55
2017-08-14T07:25:35.613Z,1011.58
2017-08-14T07:26:35.634Z,1011.56
2017-08-14T07:27:35.655Z,1011.55
2017-08-14T07:28:35.676Z,1011.56
2017-08-14T07:29:35.697Z,1011.55
2017-08-14T07:30:35.718Z,1011.58
2017-08-14T07:31:35.737Z,1011.54
2017-08-14T07:32:35.759Z,1011.57
2017-08-14T07:33:35.781Z,1011.58
2017-08-14T07:34:35.800Z,1011.58
2017-08-14T07:35:35.822Z,1011.58
2017-08-14T07:36:35.843Z,1011.61
2017-08-14T07:37:35.866Z,1011.6
2017-08-14T07:38:35.998Z,1011.56
2017-08-14T07:39:36.018Z,1011.59
2017-08-14T07:40:36.019Z,1011.58
2017-08-14T07:41:36.016Z,1011.6
2017-08-14T07:42:36.024Z,1011.57
2017-08-14T07:43:36.022Z,1011.56
2017-08-14T07:44:36.022Z,1011.53
2017-08-14T07:45:36.155Z,1011.54
2017-08-14T07:46:36.152Z,1011.58
2017-08-14T07:47:36.179Z,1011.55
2017-08-14T07:48:36.186Z,1011.56
2017-08-14T07:49:36.185Z,1011.52
2017-08-14T07:50:36.186Z,1011.53
2017-08-14T07:51:36.185Z,1011.53
2017-08-14T07:52:36.184Z,1011.52
2017-08-14T07:53:36.295Z,1011.53
2017-08-14T07:54:36.305Z,1011.53
2017-08-14T07:55:36.330Z,1011.54
2017-08-14T07:56:36.353Z,1011.56
2017-08-14T07:57:36.328Z,1011.53
2017-08-14T07:58:36.326Z,1011.51
2017-08-14T07:59:36.336Z,1011.47
2017-08-14T08:00:36.357Z,1011.47
2017-08-14T08:01:36.379Z,1011.47
2017-08-14T08:02:36.401Z,1011.49
2017-08-14T08:03:36.421Z,1011.49
2017-08-14T08:04:36.444Z,1011.54
2017-08-14T08:05:36.466Z,1011.53
2017-08-14T08:06:36.488Z,1011.54
2017-08-14T08:07:36.508Z,1011.54
2017-08-14T08:08:36.535Z,1011.58
2017-08-14T08:09:36.553Z,1011.59
2017-08-14T08:10:36.581Z,1011.53
2017-08-14T08:11:36.599Z,1011.52
2017-08-14T08:12:36.618Z,1011.52
2017-08-14T08:13:36.640Z,1011.49
2017-08-14T08:14:36.668Z,1011.51
2017-08-14T08:15:36.685Z,1011.5
2017-08-14T08:16:36.707Z,1011.51
2017-08-14T08:17:36.729Z,1011.54
2017-08-14T08:18:36.751Z,1011.54
2017-08-14T08:19:36.776Z,1011.5
2017-08-14T08:20:36.798Z,1011.5
2017-08-14T08:21:36.819Z,1011.51
2017-08-14T08:22:36.840Z,1011.53
2017-08-14T08:23:36.861Z,1011.52
2017-08-14T08:24:36.885Z,1011.49
2017-08-14T08:25:36.907Z,1011.52
2017-08-14T08:26:36.930Z,1011.55
2017-08-14T08:27:36.952Z,1011.58
2017-08-14T08:28:36.977Z,1011.57
2017-08-14T08:29:36.997Z,1011.52
2017-08-14T08:30:37.020Z,1011.51
2017-08-14T08:31:37.043Z,1011.49
2017-08-14T08:32:37.065Z,1011.54
2017-08-14T08:33:37.087Z,1011.53
2017-08-14T08:34:37.112Z,1011.53
2017-08-14T08:35:37.145Z,1011.54
2017-08-14T08:36:37.156Z,1011.5
2017-08-14T08:37:37.179Z,1011.51
2017-08-14T08:38:37.200Z,1011.52
2017-08-14T08:39:37.224Z,1011.52
2017-08-14T08:40:37.246Z,1011.55
2017-08-14T08:41:37.271Z,1011.55
2017-08-14T08:42:37.293Z,1011.51
2017-08-14T08:43:37.315Z,1011.53
2017-08-14T08:44:37.339Z,1011.56
2017-08-14T08:45:37.361Z,1011.53
2017-08-14T08:46:37.386Z,1011.52
2017-08-14T08:47:37.409Z,1011.51
2017-08-14T08:48:37.432Z,1011.51
2017-08-14T08:49:37.455Z,1011.51
2017-08-14T08:50:37.481Z,1011.49
2017-08-14T08:51:37.501Z,1011.52
2017-08-14T08:52:37.523Z,1011.51
2017-08-14T08:53:37.547Z,1011.52
2017-08-14T08:54:37.571Z,1011.51
2017-08-14T08:55:37.593Z,1011.48
2017-08-14T08:56:37.618Z,1011.46
2017-08-14T08:57:37.640Z,1011.44
2017-08-14T08:58:37.668Z,1011.5
2017-08-14T08:59:37.690Z,1011.46
2017-08-14T09:00:37.713Z,1011.44
2017-08-14T09:01:37.738Z,1011.48
2017-08-14T09:02:37.763Z,1011.44
2017-08-14T09:03:37.784Z,1011.42
2017-08-14T09:04:37.809Z,1011.44
2017-08-14T09:05:37.832Z,1011.42
2017-08-14T09:06:37.855Z,1011.42
2017-08-14T09:07:37.879Z,1011.43
2017-08-14T09:08:37.936Z,1011.39
2017-08-14T09:09:37.927Z,1011.44
2017-08-14T09:10:37.951Z,1011.42
2017-08-14T09:11:37.975Z,1011.43
2017-08-14T09:12:38.000Z,1011.38
2017-08-14T09:13:38.026Z,1011.38
2017-08-14T09:14:38.047Z,1011.37
2017-08-14T09:15:38.070Z,1011.4
2017-08-14T09:16:38.095Z,1011.42
2017-08-14T09:17:38.118Z,1011.41
2017-08-14T09:18:38.176Z,1011.42
2017-08-14T09:19:38.167Z,1011.4
2017-08-14T09:20:38.194Z,1011.4
2017-08-14T09:21:38.217Z,1011.37
2017-08-14T09:22:38.242Z,1011.34
2017-08-14T09:23:38.265Z,1011.33
2017-08-14T09:24:38.289Z,1011.3
2017-08-14T09:25:38.314Z,1011.34
2017-08-14T09:26:38.338Z,1011.36
2017-08-14T09:27:38.392Z,1011.33
2017-08-14T09:28:38.388Z,1011.31
2017-08-14T09:29:38.413Z,1011.3
2017-08-14T09:30:38.440Z,1011.29
2017-08-14T09:31:38.461Z,1011.3
2017-08-14T09:32:38.486Z,1011.26
2017-08-14T09:33:38.514Z,1011.34
2017-08-14T09:34:38.538Z,1011.32
2017-08-14T09:35:38.561Z,1011.31
2017-08-14T09:36:38.587Z,1011.3
2017-08-14T09:37:38.612Z,1011.27
2017-08-14T09:38:38.638Z,1011.3
2017-08-14T09:39:38.663Z,1011.28
2017-08-14T09:40:38.688Z,1011.33
2017-08-14T09:41:38.713Z,1011.31
2017-08-14T09:42:38.738Z,1011.29
2017-08-14T09:43:38.763Z,1011.26
2017-08-14T09:44:38.790Z,1011.28
2017-08-14T09:45:38.813Z,1011.29
2017-08-14T09:46:38.840Z,1011.32
2017-08-14T09:47:38.865Z,1011.29
2017-08-14T09:48:38.890Z,1011.27
2017-08-14T09:49:38.916Z,1011.26
2017-08-14T09:50:38.940Z,1011.28
2017-08-14T09:51:38.996Z,1011.27
2017-08-14T09:52:38.994Z,1011.23
2017-08-14T09:53:39.019Z,1011.23
2017-08-14T09:54:39.045Z,1011.25
2017-08-14T09:55:39.071Z,1011.27
2017-08-14T09:56:39.098Z,1011.26
2017-08-14T09:57:39.122Z,1011.23
2017-08-14T09:58:39.148Z,1011.26
2017-08-14T09:59:39.179Z,1011.25
2017-08-14T10:00:39.364Z,1011.26
2017-08-14T10:01:39.226Z,1011.28
2017-08-14T10:02:39.251Z,1011.29
2017-08-14T10:03:39.277Z,1011.3
2017-08-14T10:04:39.310Z,1011.29
2017-08-14T10:05:39.331Z,1011.27
2017-08-14T10:06:39.357Z,1011.29
2017-08-14T10:07:39.383Z,1011.23
2017-08-14T10:08:39.409Z,1011.23
2017-08-14T10:09:39.436Z,1011.24
2017-08-14T10:10:39.467Z,1011.24
2017-08-14T10:11:39.489Z,1011.22
2017-08-14T10:12:39.515Z,1011.19
2017-08-14T10:13:39.541Z,1011.23
2017-08-14T10:14:39.568Z,1011.23
2017-08-14T10:15:39.595Z,1011.18
2017-08-14T10:16:39.621Z,1011.17
2017-08-14T10:17:39.648Z,1011.24
2017-08-14T10:18:39.675Z,1011.14
2017-08-14T10:19:39.702Z,1011.17
2017-08-14T10:20:39.728Z,1011.15
2017-08-14T10:21:39.758Z,1011.13
2017-08-14T10:22:39.796Z,1011.1
2017-08-14T10:23:39.808Z,1011.09
2017-08-14T10:24:39.837Z,1011.07
2017-08-14T10:25:39.864Z,1011.09
2017-08-14T10:26:39.891Z,1011.09
2017-08-14T10:27:39.919Z,1011.12
2017-08-14T10:28:39.944Z,1011.13
2017-08-14T10:29:39.972Z,1011.14
2017-08-14T10:30:39.998Z,1011.16
2017-08-14T10:31:40.028Z,1011.15
2017-08-14T10:32:40.054Z,1011.12
2017-08-14T10:33:40.081Z,1011.12
2017-08-14T10:34:40.110Z,1011.09
2017-08-14T10:35:40.137Z,1011.06
2017-08-14T10:36:40.163Z,1011.04
2017-08-14T10:37:40.190Z,1011.05
2017-08-14T10:38:40.219Z,1011.05
2017-08-14T10:39:40.246Z,1011.07
2017-08-14T10:40:40.275Z,1011.05
2017-08-14T10:41:40.302Z,1011.03
2017-08-14T10:42:40.330Z,1011.06
2017-08-14T10:43:40.356Z,1011.08
2017-08-14T10:44:40.385Z,1011.06
2017-08-14T10:45:40.415Z,1010.97
2017-08-14T10:46:40.440Z,1011.04
2017-08-14T10:47:40.468Z,1010.99
2017-08-14T10:48:40.496Z,1011.02
2017-08-14T10:49:40.524Z,1011.02
2017-08-14T10:50:40.562Z,1010.98
2017-08-14T10:51:40.580Z,1011.03
2017-08-14T10:52:40.610Z,1011.02
2017-08-14T10:53:40.635Z,1011
2017-08-14T10:54:40.663Z,1011
2017-08-14T10:55:40.691Z,1011.04
2017-08-14T10:56:40.718Z,1011.03
2017-08-14T10:57:40.749Z,1010.99
2017-08-14T10:58:40.777Z,1011
2017-08-14T10:59:40.805Z,1010.97
2017-08-14T11:00:40.832Z,1010.98
2017-08-14T11:01:40.862Z,1010.92
2017-08-14T11:02:40.892Z,1010.9
2017-08-14T11:03:40.916Z,1010.91
2017-08-14T11:04:40.946Z,1010.91
2017-08-14T11:05:40.976Z,1010.93
2017-08-14T11:06:41.004Z,1010.97
2017-08-14T11:07:41.030Z,1010.96
2017-08-14T11:08:41.061Z,1010.93
2017-08-14T11:09:41.089Z,1010.94
2017-08-14T11:10:41.118Z,1010.92
2017-08-14T11:11:41.146Z,1010.89
2017-08-14T11:12:41.176Z,1010.9
2017-08-14T11:13:41.211Z,1010.92
2017-08-14T11:14:41.232Z,1010.92
2017-08-14T11:15:41.261Z,1010.94
2017-08-14T11:16:41.295Z,1010.98
2017-08-14T11:17:41.319Z,1010.97
2017-08-14T11:18:41.349Z,1010.94
2017-08-14T11:19:41.381Z,1010.96
2017-08-14T11:20:41.407Z,1010.93
2017-08-14T11:21:41.435Z,1010.94
2017-08-14T11:22:41.466Z,1010.92
2017-08-14T11:23:41.494Z,1010.93
2017-08-14T11:24:41.524Z,1010.93
2017-08-14T11:25:41.554Z,1010.91
2017-08-14T11:26:41.581Z,1010.89
2017-08-14T11:27:41.612Z,1010.89
2017-08-14T11:28:41.641Z,1010.88
2017-08-14T11:29:41.670Z,1010.88
2017-08-14T11:30:41.704Z,1010.88
2017-08-14T11:31:41.731Z,1010.88
2017-08-14T11:32:41.757Z,1010.89
2017-08-14T11:33:41.789Z,1010.91
2017-08-14T11:34:41.820Z,1010.87
2017-08-14T11:35:41.849Z,1010.91
2017-08-14T11:36:41.877Z,1010.9
2017-08-14T11:37:41.904Z,1010.89
2017-08-14T11:38:41.937Z,1010.92
2017-08-14T11:39:41.965Z,1010.89
2017-08-14T11:40:41.995Z,1010.91
2017-08-14T11:41:42.027Z,1010.95
2017-08-14T11:42:42.055Z,1010.93
2017-08-14T11:43:42.084Z,1010.89
2017-08-14T11:44:42.116Z,1010.9
2017-08-14T11:45:42.143Z,1010.9
2017-08-14T11:46:42.173Z,1010.89
2017-08-14T11:47:42.200Z,1010.89
2017-08-14T11:48:42.248Z,1010.88
2017-08-14T11:49:42.262Z,1010.84
2017-08-14T11:50:42.290Z,1010.87
2017-08-14T11:51:42.320Z,1010.88
2017-08-14T11:52:42.351Z,1010.84
2017-08-14T11:53:42.381Z,1010.78
2017-08-14T11:54:42.410Z,1010.77
2017-08-14T11:55:42.440Z,1010.74
2017-08-14T11:56:42.475Z,1010.73
2017-08-14T11:57:42.501Z,1010.7
2017-08-14T11:58:42.530Z,1010.72
2017-08-14T11:59:42.561Z,1010.73
2017-08-14T12:00:42.591Z,1010.71
2017-08-14T12:01:42.618Z,1010.74
2017-08-14T12:02:42.650Z,1010.71
2017-08-14T12:03:42.733Z,1010.72
2017-08-14T12:04:42.912Z,1010.74
2017-08-14T12:05:42.743Z,1010.77
2017-08-14T12:06:42.770Z,1010.74
2017-08-14T12:07:42.800Z,1010.76